createdAt,value
2022-11-27T00:01:26.855Z,3.97
2022-11-27T00:03:55.004Z,3.30
2022-11-27T00:06:24.452Z,3.75
2022-11-27T00:08:51.489Z,3.50
2022-11-27T00:11:21.237Z,3.28
2022-11-27T00:13:48.707Z,3.00
2022-11-27T00:16:17.012Z,3.58
2022-11-27T00:18:44.339Z,3.28
2022-11-27T00:21:17.509Z,3.15
2022-11-27T00:23:44.557Z,3.47
2022-11-27T00:26:11.886Z,3.80
2022-11-27T00:28:38.842Z,4.00
2022-11-27T00:31:09.057Z,3.42
2022-11-27T00:33:35.788Z,3.42
2022-11-27T00:36:07.817Z,3.53
2022-11-27T00:38:38.724Z,3.15
2022-11-27T00:41:11.711Z,3.30
2022-11-27T00:43:44.591Z,3.25
2022-11-27T00:46:28.069Z,3.20
2022-11-27T00:48:55.762Z,3.15
2022-11-27T00:51:23.897Z,3.55
2022-11-27T00:53:50.596Z,3.47
2022-11-27T00:56:29.326Z,3.40
2022-11-27T00:58:56.935Z,3.58
2022-11-27T01:01:29.724Z,3.30
2022-11-27T01:03:58.210Z,3.70
2022-11-27T01:06:25.930Z,3.20
2022-11-27T01:08:52.545Z,3.08
2022-11-27T01:11:22.950Z,2.92
2022-11-27T01:13:49.555Z,3.20
2022-11-27T01:16:19.846Z,3.72
2022-11-27T01:18:48.212Z,3.53
2022-11-27T01:21:18.288Z,3.55
2022-11-27T01:23:45.499Z,3.45
2022-11-27T01:26:12.979Z,3.83
2022-11-27T01:28:40.522Z,3.17
2022-11-27T01:31:10.979Z,3.00
2022-11-27T01:33:37.677Z,3.20
2022-11-27T01:36:07.400Z,3.00
2022-11-27T01:38:34.669Z,2.85
2022-11-27T01:41:12.534Z,3.90
2022-11-27T01:43:59.929Z,3.20
2022-11-27T01:48:55.774Z,2.93
2022-11-27T01:51:23.045Z,3.42
2022-11-27T01:53:51.879Z,3.50
2022-11-27T01:56:19.956Z,3.53
2022-11-27T01:58:47.330Z,3.60
2022-11-27T02:01:14.196Z,2.85
2022-11-27T02:03:40.846Z,3.15
2022-11-27T02:06:09.167Z,3.00
2022-11-27T02:08:35.759Z,3.45
2022-11-27T02:11:24.515Z,3.35
2022-11-27T02:14:15.228Z,3.00
2022-11-27T02:16:57.630Z,2.75
2022-11-27T02:19:27.284Z,3.22
2022-11-27T02:22:05.413Z,3.53
2022-11-27T02:24:41.442Z,2.75
2022-11-27T02:27:38.937Z,2.80
2022-11-27T02:30:06.807Z,2.75
2022-11-27T02:32:44.707Z,3.40
2022-11-27T02:35:19.256Z,3.08
2022-11-27T02:37:51.092Z,2.50
2022-11-27T02:40:27.678Z,3.47
2022-11-27T02:43:05.153Z,3.05
2022-11-27T02:45:37.828Z,3.05
2022-11-27T02:48:05.640Z,3.22
2022-11-27T02:50:35.927Z,3.38
2022-11-27T02:53:08.453Z,2.95
2022-11-27T02:55:38.236Z,2.95
2022-11-27T02:58:14.655Z,3.10
2022-11-27T03:00:45.084Z,2.78
2022-11-27T03:03:15.505Z,3.25
2022-11-27T03:05:46.242Z,3.13
2022-11-27T03:08:23.253Z,3.28
2022-11-27T03:11:01.383Z,3.30
2022-11-27T03:13:31.043Z,2.67
2022-11-27T03:16:05.314Z,2.75
2022-11-27T03:19:00.310Z,3.05
2022-11-27T03:21:35.492Z,2.88
2022-11-27T03:24:02.560Z,3.10
2022-11-27T03:26:30.712Z,2.85
2022-11-27T03:29:00.952Z,2.97
2022-11-27T03:31:28.321Z,2.75
2022-11-27T03:33:54.958Z,2.90
2022-11-27T03:36:22.056Z,2.90
2022-11-27T03:38:51.219Z,3.15
2022-11-27T03:42:05.977Z,2.70
2022-11-27T03:44:51.008Z,2.40
2022-11-27T03:47:34.246Z,2.33
2022-11-27T03:50:18.006Z,2.75
2022-11-27T03:53:12.528Z,2.42
2022-11-27T03:56:09.983Z,2.42
2022-11-27T04:01:26.279Z,2.60
2022-11-27T04:03:55.493Z,2.45
2022-11-27T04:06:22.250Z,2.72
2022-11-27T04:08:48.980Z,2.60
2022-11-27T04:11:15.813Z,2.50
2022-11-27T04:13:42.588Z,2.72
2022-11-27T04:16:09.275Z,3.10
2022-11-27T04:18:36.083Z,2.60
2022-11-27T04:21:03.010Z,3.15
2022-11-27T04:23:29.608Z,2.42
2022-11-27T04:25:56.215Z,2.45
2022-11-27T04:28:22.836Z,2.75
2022-11-27T04:30:53.987Z,2.70
2022-11-27T04:33:21.326Z,2.95
2022-11-27T04:35:48.228Z,2.70
2022-11-27T04:38:15.080Z,2.78
2022-11-27T04:40:41.724Z,2.28
2022-11-27T04:43:08.362Z,2.80
2022-11-27T04:45:35.504Z,2.60
2022-11-27T04:48:02.242Z,2.63
2022-11-27T04:50:28.992Z,2.55
2022-11-27T04:52:55.673Z,2.70
2022-11-27T04:55:22.371Z,2.70
2022-11-27T04:57:48.932Z,2.95
2022-11-27T05:00:15.994Z,3.13
2022-11-27T05:02:42.665Z,2.92
2022-11-27T05:05:09.528Z,2.63
2022-11-27T05:07:36.323Z,2.30
2022-11-27T05:10:04.035Z,2.95
2022-11-27T05:12:30.611Z,3.03
2022-11-27T05:15:00.641Z,2.72
2022-11-27T05:17:29.691Z,2.92
2022-11-27T05:19:56.257Z,2.38
2022-11-27T05:22:23.030Z,3.38
2022-11-27T05:24:49.565Z,2.78
2022-11-27T05:27:16.212Z,3.28
2022-11-27T05:29:43.755Z,3.40
2022-11-27T05:32:10.276Z,2.90
2022-11-27T05:34:37.004Z,3.15
2022-11-27T05:37:03.687Z,2.78
2022-11-27T05:39:30.246Z,2.80
2022-11-27T05:41:56.838Z,3.30
2022-11-27T05:44:23.414Z,2.60
2022-11-27T05:46:50.142Z,2.92
2022-11-27T05:49:16.947Z,3.30
2022-11-27T05:51:50.355Z,2.70
2022-11-27T05:54:17.747Z,2.70
2022-11-27T05:56:44.440Z,2.70
2022-11-27T05:59:11.123Z,3.17
2022-11-27T06:01:37.853Z,2.90
2022-11-27T06:04:04.623Z,2.78
2022-11-27T06:06:31.267Z,3.17
2022-11-27T06:08:57.845Z,3.20
2022-11-27T06:11:24.588Z,3.10
2022-11-27T06:13:51.945Z,3.20
2022-11-27T06:16:21.859Z,3.58
2022-11-27T06:18:53.779Z,3.25
2022-11-27T06:21:22.220Z,3.13
2022-11-27T06:23:56.755Z,3.00
2022-11-27T06:26:26.227Z,3.15
2022-11-27T06:28:54.787Z,2.70
2022-11-27T06:31:24.813Z,2.80
2022-11-27T06:33:53.183Z,2.67
2022-11-27T06:36:20.799Z,3.17
2022-11-27T06:38:47.666Z,3.00
2022-11-27T06:41:16.892Z,3.25
2022-11-27T06:43:43.979Z,3.20
2022-11-27T06:46:15.503Z,2.67
2022-11-27T06:48:43.387Z,3.20
2022-11-27T06:51:13.227Z,3.63
2022-11-27T06:53:40.661Z,2.80
2022-11-27T06:56:09.969Z,3.00
2022-11-27T06:58:37.975Z,3.15
2022-11-27T07:01:07.830Z,3.33
2022-11-27T07:03:35.158Z,3.28
2022-11-27T07:06:04.258Z,2.90
2022-11-27T07:08:30.928Z,3.00
2022-11-27T07:11:09.298Z,3.40
2022-11-27T07:13:36.048Z,3.08
2022-11-27T07:16:05.998Z,3.42
2022-11-27T07:18:37.707Z,3.40
2022-11-27T07:21:06.065Z,3.22
2022-11-27T07:23:33.233Z,3.75
2022-11-27T07:26:04.905Z,3.05
2022-11-27T07:28:31.399Z,3.22
2022-11-27T07:30:59.354Z,3.38
2022-11-27T07:33:26.374Z,2.90
2022-11-27T07:36:01.038Z,2.70
2022-11-27T07:38:28.248Z,3.25
2022-11-27T07:40:54.750Z,3.38
2022-11-27T07:43:21.444Z,3.67
2022-11-27T07:45:48.180Z,4.10
2022-11-27T07:48:14.765Z,3.38
2022-11-27T07:50:42.360Z,3.13
2022-11-27T07:53:09.052Z,3.30
2022-11-27T07:55:38.704Z,3.25
2022-11-27T07:58:06.225Z,2.92
2022-11-27T08:00:32.904Z,3.63
2022-11-27T08:03:00.249Z,3.50
2022-11-27T08:05:27.095Z,4.20
2022-11-27T08:07:53.847Z,3.28
2022-11-27T08:10:20.473Z,3.47
2022-11-27T08:12:47.688Z,3.42
2022-11-27T08:15:14.268Z,3.40
2022-11-27T08:17:42.113Z,2.80
2022-11-27T08:20:08.970Z,3.22
2022-11-27T08:22:35.710Z,3.55
2022-11-27T08:25:02.345Z,3.92
2022-11-27T08:27:32.552Z,3.50
2022-11-27T08:30:00.216Z,3.10
2022-11-27T08:32:26.978Z,3.80
2022-11-27T08:34:53.462Z,3.50
2022-11-27T08:37:20.237Z,3.75
2022-11-27T08:39:46.783Z,3.67
2022-11-27T08:42:13.505Z,3.75
2022-11-27T08:44:40.522Z,3.50
2022-11-27T08:47:07.367Z,3.60
2022-11-27T08:49:38.593Z,2.92
2022-11-27T08:52:07.197Z,3.45
2022-11-27T08:54:33.718Z,3.45
2022-11-27T08:57:00.291Z,3.40
2022-11-27T08:59:26.905Z,3.60
2022-11-27T09:01:53.465Z,3.55
2022-11-27T09:04:20.298Z,3.20
2022-11-27T09:06:49.292Z,3.90
2022-11-27T09:09:17.125Z,3.38
2022-11-27T09:12:04.379Z,3.88
2022-11-27T09:14:32.690Z,3.78
2022-11-27T09:16:59.220Z,3.20
2022-11-27T09:19:27.166Z,3.50
2022-11-27T09:21:53.836Z,3.65
2022-11-27T09:24:20.434Z,3.67
2022-11-27T09:26:47.114Z,3.97
2022-11-27T09:29:14.938Z,3.45
2022-11-27T09:31:41.575Z,3.35
2022-11-27T09:34:08.351Z,3.50
2022-11-27T09:36:35.139Z,3.58
2022-11-27T09:39:03.593Z,3.38
2022-11-27T09:41:54.368Z,4.20
2022-11-27T09:45:08.748Z,3.38
2022-11-27T09:47:49.116Z,3.95
2022-11-27T09:50:50.323Z,3.92
2022-11-27T09:53:20.059Z,3.10
2022-11-27T09:55:49.675Z,3.30
2022-11-27T09:58:28.384Z,3.55
2022-11-27T10:00:54.936Z,3.15
2022-11-27T10:03:27.668Z,3.10
2022-11-27T10:06:12.608Z,3.60
2022-11-27T10:08:42.486Z,3.67
2022-11-27T10:11:17.416Z,3.30
2022-11-27T10:13:43.948Z,3.47
2022-11-27T10:16:16.598Z,3.22
2022-11-27T10:18:48.047Z,3.40
2022-11-27T10:21:49.291Z,3.13
2022-11-27T10:24:36.889Z,3.67
2022-11-27T10:27:14.929Z,3.20
2022-11-27T10:29:53.523Z,3.50
2022-11-27T10:32:54.222Z,3.35
2022-11-27T10:35:21.350Z,3.20
2022-11-27T10:37:50.987Z,3.58
2022-11-27T10:40:26.166Z,3.70
2022-11-27T10:43:12.390Z,3.45
2022-11-27T10:45:45.536Z,3.83
2022-11-27T10:48:13.538Z,3.60
2022-11-27T10:50:41.991Z,3.72
2022-11-27T10:53:14.876Z,3.67
2022-11-27T10:55:50.304Z,3.85
2022-11-27T10:58:25.351Z,3.67
2022-11-27T11:01:01.952Z,3.80
2022-11-27T11:03:28.579Z,5.07
2022-11-27T11:08:46.772Z,4.47
2022-11-27T11:11:13.778Z,3.92
2022-11-27T11:13:40.335Z,4.18
2022-11-27T11:16:14.880Z,4.40
2022-11-27T11:18:53.575Z,4.10
2022-11-27T11:21:26.952Z,4.18
2022-11-27T11:24:00.085Z,3.70
2022-11-27T11:26:49.483Z,3.65
2022-11-27T11:29:28.274Z,3.75
2022-11-27T11:31:57.154Z,3.65
2022-11-27T11:34:30.469Z,4.10
2022-11-27T11:37:08.049Z,3.95
2022-11-27T11:40:04.128Z,4.47
2022-11-27T11:42:34.285Z,3.55
2022-11-27T11:45:16.382Z,4.07
2022-11-27T11:47:57.941Z,3.65
2022-11-27T11:50:35.036Z,4.00
2022-11-27T11:53:23.326Z,3.75
2022-11-27T11:56:02.391Z,4.50
2022-11-27T11:58:56.925Z,4.38
2022-11-27T12:01:36.673Z,4.07
2022-11-27T12:04:12.994Z,3.90
2022-11-27T12:06:58.070Z,4.00
2022-11-27T12:09:55.131Z,4.10
2022-11-27T12:12:27.701Z,4.40
2022-11-27T12:15:23.932Z,4.00
2022-11-27T12:18:09.842Z,4.32
2022-11-27T12:21:18.076Z,4.70
2022-11-27T12:23:59.997Z,4.20
2022-11-27T12:26:36.599Z,4.40
2022-11-27T12:29:28.246Z,4.20
2022-11-27T12:32:15.118Z,4.50
2022-11-27T12:34:47.975Z,3.92
2022-11-27T12:37:35.501Z,4.20
2022-11-27T12:40:28.768Z,4.50
2022-11-27T12:43:27.186Z,4.40
2022-11-27T12:46:11.006Z,4.18
2022-11-27T12:48:52.152Z,4.97
2022-11-27T12:51:21.572Z,4.50
2022-11-27T12:53:59.005Z,4.80
2022-11-27T12:56:44.993Z,4.80
2022-11-27T12:59:35.156Z,4.15
2022-11-27T13:02:11.078Z,4.03
2022-11-27T13:04:47.125Z,4.93
2022-11-27T13:07:20.533Z,4.53
2022-11-27T13:10:20.504Z,4.53
2022-11-27T13:12:52.844Z,4.82
2022-11-27T13:15:35.798Z,4.80
2022-11-27T13:18:13.878Z,4.22
2022-11-27T13:20:41.861Z,4.28
2022-11-27T13:23:08.594Z,4.53
2022-11-27T13:25:43.935Z,4.57
2022-11-27T13:28:21.178Z,4.80
2022-11-27T13:30:50.038Z,4.32
2022-11-27T13:33:34.015Z,4.55
2022-11-27T13:36:03.830Z,4.50
2022-11-27T13:38:34.289Z,4.78
2022-11-27T13:41:05.853Z,4.60
2022-11-27T13:43:44.449Z,4.55
2022-11-27T13:46:18.204Z,4.93
2022-11-27T13:49:03.764Z,5.47
2022-11-27T13:51:33.981Z,5.38
2022-11-27T13:54:27.562Z,4.88
2022-11-27T13:56:55.593Z,5.18
2022-11-27T13:59:24.568Z,5.50
2022-11-27T14:02:09.503Z,4.78
2022-11-27T14:04:53.065Z,4.70
2022-11-27T14:07:23.452Z,5.57
2022-11-27T14:09:54.260Z,4.60
2022-11-27T14:12:33.532Z,4.40
2022-11-27T14:15:09.230Z,4.85
2022-11-27T14:17:37.688Z,4.85
2022-11-27T14:20:30.152Z,5.15
2022-11-27T14:23:11.671Z,5.13
2022-11-27T14:25:39.517Z,5.88
2022-11-27T14:28:15.156Z,4.60
2022-11-27T14:30:45.473Z,5.20
2022-11-27T14:33:26.485Z,4.80
2022-11-27T14:35:56.326Z,4.97
2022-11-27T14:38:24.546Z,5.05
2022-11-27T14:40:55.897Z,5.07
2022-11-27T14:43:26.282Z,5.30
2022-11-27T14:45:56.538Z,5.43
2022-11-27T14:48:25.737Z,4.93
2022-11-27T14:50:54.823Z,5.35
2022-11-27T14:53:24.423Z,5.80
2022-11-27T14:55:54.962Z,5.70
2022-11-27T14:58:25.732Z,5.30
2022-11-27T15:01:20.924Z,5.15
2022-11-27T15:03:58.009Z,5.30
2022-11-27T15:06:26.892Z,5.53
2022-11-27T15:09:16.021Z,4.95
2022-11-27T15:11:55.738Z,5.68
2022-11-27T15:14:25.550Z,5.25
2022-11-27T15:16:53.367Z,5.40
2022-11-27T15:19:31.582Z,5.63
2022-11-27T15:21:58.896Z,6.10
2022-11-27T15:24:38.814Z,5.85
2022-11-27T15:27:19.184Z,5.55
2022-11-27T15:30:10.560Z,5.03
2022-11-27T15:32:51.587Z,5.07
2022-11-27T15:35:30.412Z,5.90
2022-11-27T15:37:57.746Z,5.63
2022-11-27T15:40:33.677Z,5.43
2022-11-27T15:43:00.333Z,5.63
2022-11-27T15:45:30.313Z,5.35
2022-11-27T15:48:01.462Z,6.05
2022-11-27T15:50:30.006Z,5.70
2022-11-27T15:52:57.454Z,4.95
2022-11-27T15:55:24.981Z,5.30
2022-11-27T15:57:51.605Z,5.47
2022-11-27T16:00:18.974Z,6.00
2022-11-27T16:02:45.563Z,5.50
2022-11-27T16:05:12.483Z,5.20
2022-11-27T16:07:39.078Z,5.40
2022-11-27T16:10:06.584Z,5.03
2022-11-27T16:12:33.618Z,5.05
2022-11-27T16:15:00.224Z,5.07
2022-11-27T16:17:27.042Z,4.85
2022-11-27T16:19:53.655Z,4.68
2022-11-27T16:22:20.355Z,5.35
2022-11-27T16:24:47.137Z,5.00
2022-11-27T16:27:13.757Z,4.97
2022-11-27T16:29:40.370Z,5.50
2022-11-27T16:32:07.101Z,5.10
2022-11-27T16:34:33.689Z,5.00
2022-11-27T16:37:00.408Z,4.55
2022-11-27T16:39:27.105Z,4.60
2022-11-27T16:41:53.839Z,5.28
2022-11-27T16:44:20.444Z,4.80
2022-11-27T16:46:47.132Z,4.63
2022-11-27T16:49:13.797Z,4.50
2022-11-27T16:51:42.053Z,4.50
2022-11-27T16:54:11.665Z,4.60
2022-11-27T16:56:38.761Z,4.03
2022-11-27T16:59:14.196Z,4.53
2022-11-27T17:01:42.427Z,5.13
2022-11-27T17:04:16.178Z,4.30
2022-11-27T17:06:43.020Z,4.57
2022-11-27T17:09:09.900Z,4.10
2022-11-27T17:11:40.982Z,4.03
2022-11-27T17:14:08.359Z,4.38
2022-11-27T17:16:36.219Z,4.68
2022-11-27T17:19:03.087Z,4.82
2022-11-27T17:21:31.786Z,3.80
2022-11-27T17:24:03.483Z,4.30
2022-11-27T17:26:31.967Z,4.03
2022-11-27T17:28:59.560Z,4.13
2022-11-27T17:31:30.837Z,3.92
2022-11-27T17:33:57.467Z,4.15
2022-11-27T17:36:25.526Z,4.28
2022-11-27T17:38:52.250Z,3.88
2022-11-27T17:41:19.678Z,4.05
2022-11-27T17:43:47.037Z,3.72
2022-11-27T17:46:27.692Z,3.95
2022-11-27T17:48:55.791Z,4.07
2022-11-27T17:51:22.407Z,3.85
2022-11-27T17:53:51.098Z,3.75
2022-11-27T17:56:20.506Z,4.00
2022-11-27T17:58:47.507Z,4.22
2022-11-27T18:01:23.618Z,4.03
2022-11-27T18:03:51.227Z,3.92
2022-11-27T18:06:19.513Z,3.30
2022-11-27T18:08:47.371Z,3.88
2022-11-27T18:11:17.293Z,3.63
2022-11-27T18:13:44.487Z,4.03
2022-11-27T18:16:14.033Z,3.40
2022-11-27T18:18:41.397Z,3.97
2022-11-27T18:21:20.275Z,3.50
2022-11-27T18:29:22.520Z,3.45
2022-11-27T18:31:51.195Z,3.20
2022-11-27T18:34:18.018Z,3.80
2022-11-27T18:36:45.870Z,3.83
2022-11-27T18:39:12.892Z,3.10
2022-11-27T18:41:39.586Z,3.40
2022-11-27T18:44:06.405Z,3.45
2022-11-27T18:46:33.804Z,3.60
2022-11-27T18:49:00.422Z,4.05
2022-11-27T18:51:27.124Z,3.67
2022-11-27T18:53:55.913Z,3.60
2022-11-27T18:56:25.202Z,4.20
2022-11-27T18:58:52.433Z,4.35
2022-11-27T19:01:22.172Z,3.55
2022-11-27T19:03:49.357Z,3.55
2022-11-27T19:06:18.227Z,3.90
2022-11-27T19:08:45.808Z,3.30
2022-11-27T19:11:15.809Z,3.88
2022-11-27T19:13:43.152Z,4.40
2022-11-27T19:16:16.037Z,3.78
2022-11-27T19:18:42.856Z,4.47
2022-11-27T19:21:20.183Z,4.30
2022-11-27T19:23:49.734Z,4.10
2022-11-27T19:26:28.279Z,4.50
2022-11-27T19:28:57.430Z,4.00
2022-11-27T19:31:26.297Z,4.03
2022-11-27T19:33:55.182Z,4.07
2022-11-27T19:36:22.960Z,4.38
2022-11-27T19:38:54.617Z,3.70
2022-11-27T19:41:21.327Z,4.00
2022-11-27T19:43:48.009Z,4.05
2022-11-27T19:46:16.933Z,3.65
2022-11-27T19:48:43.747Z,3.83
2022-11-27T19:51:10.880Z,3.97
2022-11-27T19:53:38.621Z,3.83
2022-11-27T19:56:06.191Z,3.80
2022-11-27T19:58:32.979Z,3.53
2022-11-27T20:01:11.658Z,4.40
2022-11-27T20:03:38.895Z,4.10
2022-11-27T20:06:08.731Z,4.28
2022-11-27T20:08:35.434Z,4.20
2022-11-27T20:11:02.905Z,3.92
2022-11-27T20:13:29.544Z,3.75
2022-11-27T20:15:56.090Z,3.85
2022-11-27T20:18:22.842Z,4.60
2022-11-27T20:20:49.864Z,4.20
2022-11-27T20:23:16.692Z,3.85
2022-11-27T20:25:43.418Z,4.10
2022-11-27T20:28:10.674Z,4.05
2022-11-27T20:30:39.416Z,4.07
2022-11-27T20:33:07.793Z,3.55
2022-11-27T20:35:34.696Z,4.00
2022-11-27T20:38:01.580Z,3.97
2022-11-27T20:40:28.517Z,3.97
2022-11-27T20:42:55.231Z,4.40
2022-11-27T20:45:21.865Z,4.72
2022-11-27T20:47:48.750Z,4.65
2022-11-27T20:50:15.383Z,4.53
2022-11-27T20:52:42.036Z,4.25
2022-11-27T20:55:08.724Z,4.50
2022-11-27T20:57:35.383Z,4.10
2022-11-27T21:00:02.747Z,4.18
2022-11-27T21:02:29.353Z,4.05
2022-11-27T21:04:56.060Z,4.10
2022-11-27T21:07:22.959Z,4.25
2022-11-27T21:09:49.577Z,3.53
2022-11-27T21:12:16.817Z,3.85
2022-11-27T21:14:44.264Z,4.43
2022-11-27T21:17:10.958Z,4.45
2022-11-27T21:19:37.557Z,3.83
2022-11-27T21:22:04.134Z,4.07
2022-11-27T21:24:30.861Z,4.50
2022-11-27T21:26:57.878Z,3.88
2022-11-27T21:29:27.785Z,4.22
2022-11-27T21:31:55.462Z,4.45
2022-11-27T21:34:22.675Z,3.58
2022-11-27T21:36:49.373Z,3.92
2022-11-27T21:39:20.541Z,4.10
2022-11-27T21:41:49.550Z,3.83
2022-11-27T21:44:17.944Z,3.55
2022-11-27T21:46:46.497Z,3.47
2022-11-27T21:49:15.142Z,3.20
2022-11-27T21:51:41.881Z,3.72
2022-11-27T21:54:12.771Z,3.60
2022-11-27T21:56:58.443Z,3.90
2022-11-27T21:59:25.045Z,3.70
2022-11-27T22:01:51.860Z,3.78
2022-11-27T22:04:18.918Z,3.63
2022-11-27T22:06:46.385Z,4.03
2022-11-27T22:09:15.674Z,3.58
2022-11-27T22:11:43.728Z,3.72
2022-11-27T22:14:10.552Z,4.38
2022-11-27T22:16:44.903Z,3.95
2022-11-27T22:19:14.507Z,3.85
2022-11-27T22:21:41.454Z,3.83
2022-11-27T22:24:14.870Z,3.83
2022-11-27T22:26:44.894Z,3.53
2022-11-27T22:29:11.469Z,4.43
2022-11-27T22:31:38.231Z,3.50
2022-11-27T22:34:04.953Z,4.00
2022-11-27T22:36:33.761Z,3.90
2022-11-27T22:39:03.852Z,3.80
2022-11-27T22:41:33.899Z,3.63
2022-11-27T22:44:05.632Z,3.50
2022-11-27T22:46:35.424Z,3.72
2022-11-27T22:49:05.074Z,3.35
2022-11-27T22:51:33.950Z,3.88
2022-11-27T22:54:01.891Z,3.65
2022-11-27T22:56:28.651Z,3.97
2022-11-27T22:59:17.460Z,3.67
2022-11-27T23:01:42.524Z,4.40
2022-11-27T23:04:09.491Z,3.47
2022-11-27T23:06:37.040Z,3.80
2022-11-27T23:09:04.073Z,3.60
2022-11-27T23:11:31.007Z,3.97
2022-11-27T23:13:58.370Z,3.65
2022-11-27T23:16:25.402Z,3.60
2022-11-27T23:18:52.054Z,3.50
2022-11-27T23:21:21.985Z,3.40
2022-11-27T23:23:49.319Z,3.08
2022-11-27T23:26:22.103Z,3.58
2022-11-27T23:28:50.752Z,3.40
2022-11-27T23:31:30.791Z,3.40
2022-11-27T23:33:58.943Z,3.30
2022-11-27T23:36:25.560Z,3.17
2022-11-27T23:38:52.516Z,3.00
2022-11-27T23:41:21.721Z,3.83
2022-11-27T23:43:48.899Z,3.42
2022-11-27T23:46:17.163Z,3.53
2022-11-27T23:48:44.112Z,3.42
2022-11-27T23:51:13.889Z,3.65
2022-11-27T23:53:41.111Z,3.50
2022-11-27T23:56:18.644Z,3.35
2022-11-27T23:58:47.353Z,3.55
